createdAt,value
2018-09-08T00:02:22.492Z,67.82
2018-09-08T00:04:53.973Z,67.53
2018-09-08T00:07:29.393Z,67.52
2018-09-08T00:09:59.642Z,68.42
2018-09-08T00:12:29.468Z,67.79
2018-09-08T00:15:04.226Z,68.44
2018-09-08T00:17:38.759Z,68.36
2018-09-08T00:20:13.745Z,68.17
2018-09-08T00:22:48.812Z,67.83
2018-09-08T00:25:23.750Z,68.48
2018-09-08T00:28:05.659Z,68.41
2018-09-08T00:30:35.501Z,68.86
2018-09-08T00:33:05.452Z,68.73
2018-09-08T00:35:35.907Z,69.80
2018-09-08T00:38:05.726Z,68.89
2018-09-08T00:40:35.581Z,68.23
2018-09-08T00:43:05.606Z,68.59
2018-09-08T00:45:36.106Z,68.74
2018-09-08T00:48:06.014Z,68.25
2018-09-08T00:50:36.144Z,68.65
2018-09-08T00:53:05.976Z,68.47
2018-09-08T00:55:35.959Z,68.80
2018-09-08T00:58:05.782Z,68.99
2018-09-08T01:00:35.903Z,69.12
2018-09-08T01:03:05.745Z,69.89
2018-09-08T01:05:35.597Z,70.77
2018-09-08T01:08:05.474Z,71.19
2018-09-08T01:10:35.520Z,70.89
2018-09-08T01:13:05.521Z,70.92
2018-09-08T01:15:35.786Z,71.72
2018-09-08T01:18:06.325Z,72.34
2018-09-08T01:20:36.177Z,72.82
2018-09-08T01:23:08.540Z,72.36
2018-09-08T01:25:39.467Z,72.94
2018-09-08T01:28:09.330Z,74.87
2018-09-08T01:30:39.192Z,73.20
2018-09-08T01:33:08.950Z,72.99
2018-09-08T01:35:39.287Z,73.20
2018-09-08T01:38:09.416Z,72.91
2018-09-08T01:40:39.409Z,73.33
2018-09-08T01:43:09.162Z,73.43
2018-09-08T01:45:38.932Z,73.35
2018-09-08T01:48:08.811Z,73.35
2018-09-08T01:50:39.286Z,72.93
2018-09-08T01:53:09.440Z,73.12
2018-09-08T01:55:39.507Z,73.68
2018-09-08T01:58:09.347Z,73.74
2018-09-08T02:00:39.294Z,73.84
2018-09-08T02:03:10.505Z,74.30
2018-09-08T02:05:41.483Z,73.90
2018-09-08T02:08:12.339Z,74.27
2018-09-08T02:10:43.696Z,74.47
2018-09-08T02:13:14.893Z,74.91
2018-09-08T02:15:45.721Z,74.87
2018-09-08T02:18:16.410Z,75.06
2018-09-08T02:20:47.361Z,74.55
2018-09-08T02:23:18.796Z,74.15
2018-09-08T02:25:49.642Z,74.94
2018-09-08T02:28:20.381Z,74.62
2018-09-08T02:30:51.357Z,75.55
2018-09-08T02:33:23.322Z,75.72
2018-09-08T02:35:53.318Z,74.99
2018-09-08T02:38:24.212Z,75.49
2018-09-08T02:40:54.618Z,76.64
2018-09-08T02:43:25.422Z,76.15
2018-09-08T02:45:56.509Z,76.04
2018-09-08T02:48:27.367Z,76.83
2018-09-08T02:50:56.605Z,76.68
2018-09-08T02:53:27.300Z,75.95
2018-09-08T02:55:58.130Z,75.72
2018-09-08T02:58:27.690Z,76.31
2018-09-08T03:00:56.903Z,76.37
2018-09-08T03:03:26.635Z,76.28
2018-09-08T03:05:54.602Z,76.43
2018-09-08T03:08:22.745Z,76.34
2018-09-08T03:10:50.717Z,76.61
2018-09-08T03:13:18.745Z,76.53
2018-09-08T03:15:46.837Z,76.85
2018-09-08T03:18:14.816Z,76.84
2018-09-08T03:20:42.808Z,76.81
2018-09-08T03:23:10.766Z,77.22
2018-09-08T03:25:38.970Z,76.79
2018-09-08T03:28:06.985Z,77.11
2018-09-08T03:30:34.901Z,77.69
2018-09-08T03:33:03.045Z,79.07
2018-09-08T03:35:30.982Z,78.74
2018-09-08T03:37:58.914Z,78.32
2018-09-08T03:40:26.998Z,77.80
2018-09-08T03:42:55.017Z,78.19
2018-09-08T03:45:22.952Z,78.11
2018-09-08T03:47:50.935Z,78.19
2018-09-08T03:50:18.868Z,77.36
2018-09-08T03:52:46.938Z,77.41
2018-09-08T03:55:14.903Z,77.94
2018-09-08T03:57:42.829Z,78.26
2018-09-08T04:00:10.896Z,78.17
2018-09-08T04:02:40.863Z,77.44
2018-09-08T04:05:10.696Z,77.68
2018-09-08T04:07:40.676Z,77.45
2018-09-08T04:10:10.538Z,77.52
2018-09-08T04:12:40.608Z,77.53
2018-09-08T04:15:10.483Z,77.51
2018-09-08T04:17:40.480Z,78.17
2018-09-08T04:20:10.931Z,77.58
2018-09-08T04:22:40.708Z,77.25
2018-09-08T04:25:10.563Z,77.08
2018-09-08T04:27:40.366Z,76.83
2018-09-08T04:30:10.556Z,77.40
2018-09-08T04:32:40.437Z,77.25
2018-09-08T04:35:10.503Z,78.39
2018-09-08T04:37:40.483Z,78.45
2018-09-08T04:40:10.513Z,78.70
2018-09-08T04:42:40.688Z,79.71
2018-09-08T04:45:10.626Z,79.52
2018-09-08T04:47:40.513Z,79.79
2018-09-08T04:50:10.513Z,80.28
2018-09-08T04:52:40.715Z,80.31
2018-09-08T04:55:10.729Z,80.58
2018-09-08T04:57:40.828Z,81.53
2018-09-08T05:00:10.931Z,80.64
2018-09-08T05:02:40.778Z,80.71
2018-09-08T05:05:12.559Z,80.36
2018-09-08T05:07:42.476Z,80.47
2018-09-08T05:10:12.617Z,80.21
2018-09-08T05:12:42.684Z,80.16
2018-09-08T05:15:12.465Z,80.73
2018-09-08T05:17:42.965Z,81.34
2018-09-08T05:20:12.825Z,80.99
2018-09-08T05:22:42.765Z,79.95
2018-09-08T05:25:12.628Z,79.05
2018-09-08T05:27:42.530Z,77.68
2018-09-08T05:30:12.545Z,76.77
2018-09-08T05:32:42.893Z,75.93
2018-09-08T05:35:12.821Z,76.22
2018-09-08T05:37:42.754Z,75.43
2018-09-08T05:40:12.633Z,75.19
2018-09-08T05:42:43.500Z,74.66
2018-09-08T05:45:13.549Z,74.06
2018-09-08T05:47:43.534Z,73.96
2018-09-08T05:50:15.296Z,74.43
2018-09-08T05:52:45.521Z,74.87
2018-09-08T05:55:15.614Z,75.22
2018-09-08T05:57:45.896Z,75.61
2018-09-08T06:00:15.795Z,75.37
2018-09-08T06:02:45.530Z,75.00
2018-09-08T06:05:15.495Z,74.86
2018-09-08T06:07:45.431Z,75.17
2018-09-08T06:10:15.408Z,74.47
2018-09-08T06:12:45.667Z,74.07
2018-09-08T06:15:15.350Z,74.26
2018-09-08T06:17:45.817Z,73.68
2018-09-08T06:20:15.533Z,73.77
2018-09-08T06:22:45.329Z,73.64
2018-09-08T06:25:15.408Z,73.67
2018-09-08T06:27:45.720Z,73.42
2018-09-08T06:30:15.568Z,73.86
2018-09-08T06:32:45.513Z,74.04
2018-09-08T06:35:15.461Z,74.05
2018-09-08T06:37:45.668Z,74.11
2018-09-08T06:40:15.574Z,74.05
2018-09-08T06:42:45.536Z,73.53
2018-09-08T06:45:15.777Z,73.32
2018-09-08T06:47:46.239Z,74.16
2018-09-08T06:50:16.534Z,73.17
2018-09-08T06:52:47.124Z,72.79
2018-09-08T06:55:17.300Z,72.82
2018-09-08T06:57:47.075Z,73.44
2018-09-08T07:00:16.933Z,73.58
2018-09-08T07:02:46.874Z,74.19
2018-09-08T07:05:17.190Z,74.28
2018-09-08T07:07:46.957Z,75.98
2018-09-08T07:10:16.934Z,75.85
2018-09-08T07:12:47.173Z,76.70
2018-09-08T07:15:17.275Z,76.54
2018-09-08T07:17:47.182Z,77.22
2018-09-08T07:20:17.034Z,76.55
2018-09-08T07:22:47.234Z,75.82
2018-09-08T07:25:17.086Z,76.13
2018-09-08T07:27:46.999Z,75.82
2018-09-08T07:30:17.602Z,75.37
2018-09-08T07:32:48.577Z,75.76
2018-09-08T07:35:19.297Z,75.52
2018-09-08T07:37:50.164Z,76.00
2018-09-08T07:40:21.456Z,76.09
2018-09-08T07:42:52.360Z,76.19
2018-09-08T07:45:23.194Z,76.03
2018-09-08T07:47:54.609Z,76.03
2018-09-08T07:50:25.443Z,76.68
2018-09-08T07:52:56.586Z,76.05
2018-09-08T07:55:27.449Z,76.53
2018-09-08T07:57:58.554Z,76.30
2018-09-08T08:00:29.415Z,76.41
2018-09-08T08:03:00.550Z,75.75
2018-09-08T08:05:32.462Z,76.26
2018-09-08T08:08:02.451Z,75.84
2018-09-08T08:10:33.276Z,75.01
2018-09-08T08:13:04.346Z,73.85
2018-09-08T08:15:35.327Z,73.60
2018-09-08T08:18:06.721Z,72.48
2018-09-08T08:20:37.357Z,72.09
2018-09-08T08:23:09.905Z,71.90
2018-09-08T08:25:39.850Z,71.10
2018-09-08T08:28:10.636Z,70.53
2018-09-08T08:30:41.548Z,70.12
2018-09-08T08:33:12.623Z,69.83
2018-09-08T08:35:43.615Z,69.11
2018-09-08T08:38:14.672Z,68.51
2018-09-08T08:40:45.483Z,67.34
2018-09-08T08:43:16.455Z,67.19
2018-09-08T08:45:47.437Z,66.92
2018-09-08T08:48:18.644Z,65.26
2018-09-08T08:50:59.913Z,64.83
2018-09-08T08:53:42.188Z,62.74
2018-09-08T08:56:12.266Z,62.98
2018-09-08T08:58:42.439Z,62.26
2018-09-08T09:01:13.056Z,61.51
2018-09-08T09:03:42.813Z,60.72
2018-09-08T09:06:12.706Z,60.80
2018-09-08T09:08:43.160Z,60.82
2018-09-08T09:11:13.437Z,59.19
2018-09-08T09:13:43.264Z,58.33
2018-09-08T09:16:13.423Z,58.46
2018-09-08T09:18:54.381Z,56.89
2018-09-08T09:21:34.656Z,57.75
2018-09-08T09:24:26.004Z,57.09
2018-09-08T09:26:55.645Z,56.89
2018-09-08T09:29:25.576Z,57.19
2018-09-08T09:31:55.539Z,58.52
2018-09-08T09:34:25.604Z,58.13
2018-09-08T09:36:55.479Z,57.36
2018-09-08T09:39:25.430Z,57.86
2018-09-08T09:41:55.494Z,57.31
2018-09-08T09:44:25.499Z,56.19
2018-09-08T09:46:55.692Z,55.21
2018-09-08T09:49:25.768Z,54.96
2018-09-08T09:51:55.572Z,52.45
2018-09-08T09:54:27.904Z,52.80
2018-09-08T09:56:57.930Z,52.11
2018-09-08T09:59:27.853Z,52.87
2018-09-08T10:02:02.426Z,53.63
2018-09-08T10:04:32.628Z,53.87
2018-09-08T10:07:02.731Z,52.86
2018-09-08T10:09:32.823Z,52.48
2018-09-08T10:12:02.804Z,53.35
2018-09-08T10:14:32.783Z,53.16
2018-09-08T10:17:02.843Z,52.58
2018-09-08T10:19:39.143Z,52.19
2018-09-08T10:22:09.217Z,51.87
2018-09-08T10:24:39.252Z,51.32
2018-09-08T10:27:09.389Z,51.21
2018-09-08T10:29:39.530Z,51.07
2018-09-08T10:32:09.675Z,51.53
2018-09-08T10:34:39.648Z,51.26
2018-09-08T10:37:09.554Z,49.02
2018-09-08T10:39:39.583Z,49.34
2018-09-08T10:42:09.645Z,48.96
2018-09-08T10:44:39.541Z,49.70
2018-09-08T10:47:09.842Z,50.12
2018-09-08T10:49:39.929Z,50.00
2018-09-08T10:52:22.162Z,50.35
2018-09-08T10:54:52.275Z,50.13
2018-09-08T10:57:22.406Z,49.51
2018-09-08T10:59:53.039Z,48.07
2018-09-08T11:02:23.425Z,46.21
2018-09-08T11:04:53.514Z,46.62
2018-09-08T11:07:23.616Z,44.63
2018-09-08T11:09:53.483Z,44.37
2018-09-08T11:12:23.548Z,43.15
2018-09-08T11:14:53.660Z,43.40
2018-09-08T11:17:23.739Z,44.16
2018-09-08T11:19:53.817Z,44.29
2018-09-08T11:22:23.621Z,43.46
2018-09-08T11:24:53.481Z,43.83
2018-09-08T11:27:23.608Z,45.34
2018-09-08T11:29:53.627Z,45.12
2018-09-08T11:32:23.845Z,42.62
2018-09-08T11:34:53.937Z,43.31
2018-09-08T11:37:23.911Z,42.97
2018-09-08T11:39:53.666Z,43.47
2018-09-08T11:42:23.510Z,43.98
2018-09-08T11:44:53.496Z,44.57
2018-09-08T11:47:23.721Z,44.63
2018-09-08T11:49:53.652Z,44.45
2018-09-08T11:52:23.476Z,44.15
2018-09-08T11:54:53.610Z,42.00
2018-09-08T11:57:23.539Z,42.05
2018-09-08T11:59:53.388Z,41.93
2018-09-08T12:02:23.705Z,42.59
2018-09-08T12:04:53.538Z,42.93
2018-09-08T12:07:23.509Z,40.59
2018-09-08T12:09:53.953Z,41.59
2018-09-08T12:12:23.750Z,40.59
2018-09-08T12:14:54.126Z,40.07
2018-09-08T12:17:24.273Z,39.74
2018-09-08T12:19:54.624Z,39.09
2018-09-08T12:22:24.662Z,39.33
2018-09-08T12:24:54.937Z,39.28
2018-09-08T12:27:25.133Z,38.09
2018-09-08T12:30:03.271Z,37.31
2018-09-08T12:32:33.107Z,38.00
2018-09-08T12:35:03.677Z,39.54
2018-09-08T12:37:33.434Z,38.51
2018-09-08T12:40:03.561Z,39.16
2018-09-08T12:42:33.801Z,41.11
2018-09-08T12:45:04.785Z,39.79
2018-09-08T12:47:35.517Z,38.10
2018-09-08T12:50:05.783Z,35.78
2018-09-08T12:52:36.022Z,37.01
2018-09-08T12:55:06.516Z,37.97
2018-09-08T12:57:36.621Z,38.64
2018-09-08T13:00:06.842Z,38.24
2018-09-08T13:02:36.539Z,36.30
2018-09-08T13:05:06.433Z,36.21
2018-09-08T13:07:36.339Z,38.21
2018-09-08T13:10:06.337Z,39.09
2018-09-08T13:12:36.241Z,38.59
2018-09-08T13:15:06.929Z,37.68
2018-09-08T13:17:37.010Z,37.34
2018-09-08T13:20:07.033Z,36.83
2018-09-08T13:22:36.883Z,36.67
2018-09-08T13:25:07.356Z,35.30
2018-09-08T13:27:37.124Z,35.53
2018-09-08T13:30:07.743Z,35.47
2018-09-08T13:32:38.967Z,33.89
2018-09-08T13:35:09.035Z,33.38
2018-09-08T13:37:39.822Z,33.75
2018-09-08T13:40:09.603Z,32.18
2018-09-08T13:42:40.554Z,32.29
2018-09-08T13:45:11.311Z,33.05
2018-09-08T13:47:42.356Z,33.04
2018-09-08T13:50:13.154Z,31.91
2018-09-08T13:52:44.794Z,32.56
2018-09-08T13:55:15.629Z,31.83
2018-09-08T13:57:46.662Z,32.42
2018-09-08T14:00:17.495Z,32.11
2018-09-08T14:02:48.522Z,32.73
2018-09-08T14:05:19.309Z,32.53
2018-09-08T14:07:53.033Z,31.32
2018-09-08T14:10:22.940Z,31.66
2018-09-08T14:12:52.739Z,31.23
2018-09-08T14:15:23.376Z,31.53
2018-09-08T14:17:55.030Z,32.19
2018-09-08T14:20:25.959Z,32.47
2018-09-08T14:22:56.789Z,33.61
2018-09-08T14:25:27.576Z,32.97
2018-09-08T14:27:58.431Z,32.86
2018-09-08T14:30:29.343Z,33.02
2018-09-08T14:33:00.438Z,34.16
2018-09-08T14:35:31.442Z,33.36
2018-09-08T14:38:02.260Z,33.27
2018-09-08T14:40:33.449Z,32.67
2018-09-08T14:43:04.205Z,32.40
2018-09-08T14:45:35.598Z,32.03
2018-09-08T14:51:03.878Z,34.04
2018-09-08T14:53:34.510Z,33.51
2018-09-08T14:56:04.699Z,34.44
2018-09-08T14:58:34.516Z,34.98
2018-09-08T15:01:04.607Z,35.63
2018-09-08T15:03:34.521Z,35.44
2018-09-08T15:06:15.501Z,36.18
2018-09-08T15:08:45.716Z,36.76
2018-09-08T15:11:15.522Z,37.17
2018-09-08T15:13:45.556Z,36.86
2018-09-08T15:16:15.520Z,37.50
2018-09-08T15:18:45.415Z,36.10
2018-09-08T15:21:15.608Z,36.01
2018-09-08T15:23:45.460Z,36.90
2018-09-08T15:26:15.425Z,37.10
2018-09-08T15:28:45.589Z,36.93
2018-09-08T15:31:15.443Z,37.73
2018-09-08T15:33:46.062Z,37.47
2018-09-08T15:36:16.056Z,37.80
2018-09-08T15:38:45.894Z,37.82
2018-09-08T15:41:15.851Z,37.73
2018-09-08T15:43:46.053Z,38.27
2018-09-08T15:46:16.158Z,39.05
2018-09-08T15:48:46.004Z,39.13
2018-09-08T15:51:16.390Z,39.37
2018-09-08T15:53:46.909Z,39.49
2018-09-08T15:56:17.529Z,39.46
2018-09-08T15:58:47.547Z,39.34
2018-09-08T16:01:18.055Z,39.76
2018-09-08T16:03:48.247Z,39.78
2018-09-08T16:06:18.009Z,39.69
2018-09-08T16:08:47.970Z,39.35
2018-09-08T16:11:17.914Z,39.37
2018-09-08T16:13:48.415Z,39.28
2018-09-08T16:16:18.203Z,39.51
2018-09-08T16:18:48.078Z,39.36
2018-09-08T16:21:18.133Z,39.49
2018-09-08T16:23:47.926Z,39.67
2018-09-08T16:26:18.073Z,39.67
2018-09-08T16:28:48.319Z,39.79
2018-09-08T16:31:18.321Z,40.44
2018-09-08T16:33:48.134Z,40.59
2018-09-08T16:36:18.477Z,41.07
2018-09-08T16:38:49.302Z,41.28
2018-09-08T16:41:20.237Z,41.14
2018-09-08T16:43:51.525Z,41.28
2018-09-08T16:46:22.229Z,41.29
2018-09-08T16:48:53.314Z,41.35
2018-09-08T16:51:24.229Z,41.23
2018-09-08T16:53:55.294Z,40.89
2018-09-08T16:56:26.288Z,41.25
2018-09-08T16:58:57.357Z,41.41
2018-09-08T17:01:28.567Z,41.59
2018-09-08T17:03:58.405Z,42.01
2018-09-08T17:06:29.124Z,41.99
2018-09-08T17:09:00.756Z,42.05
2018-09-08T17:11:31.377Z,41.81
2018-09-08T17:14:03.297Z,42.52
2018-09-08T17:16:34.239Z,41.95
2018-09-08T17:19:04.300Z,42.15
2018-09-08T17:21:35.100Z,42.78
2018-09-08T17:24:06.708Z,42.79
2018-09-08T17:26:37.536Z,43.12
2018-09-08T17:29:08.589Z,43.10
2018-09-08T17:31:40.556Z,43.25
2018-09-08T17:34:11.085Z,43.80
2018-09-08T17:36:41.568Z,44.45
2018-09-08T17:39:13.801Z,44.64
2018-09-08T17:41:45.894Z,45.25
2018-09-08T17:44:16.191Z,45.70
2018-09-08T17:46:45.935Z,46.26
2018-09-08T17:49:16.621Z,46.58
2018-09-08T17:51:47.296Z,46.63
2018-09-08T17:54:18.405Z,47.32
2018-09-08T17:56:49.309Z,47.35
2018-09-08T17:59:20.726Z,47.91
2018-09-08T18:01:51.639Z,48.34
2018-09-08T18:04:22.691Z,48.74
2018-09-08T18:06:53.724Z,49.22
2018-09-08T18:09:28.625Z,49.64
2018-09-08T18:12:04.624Z,50.28
2018-09-08T18:14:35.332Z,49.91
2018-09-08T18:17:05.527Z,50.57
2018-09-08T18:19:35.497Z,50.92
2018-09-08T18:22:05.294Z,51.77
2018-09-08T18:24:35.027Z,52.08
2018-09-08T18:27:05.249Z,52.71
2018-09-08T18:29:35.177Z,53.33
2018-09-08T18:32:05.352Z,53.93
2018-09-08T18:34:35.037Z,53.70
2018-09-08T18:37:04.875Z,53.62
2018-09-08T18:39:35.596Z,54.23
2018-09-08T18:42:06.409Z,54.14
2018-09-08T18:44:37.305Z,54.25
2018-09-08T18:47:08.205Z,54.60
2018-09-08T18:49:39.536Z,54.74
2018-09-08T18:52:10.543Z,55.33
2018-09-08T18:54:41.493Z,55.30
2018-09-08T18:57:12.540Z,55.12
2018-09-08T18:59:43.482Z,55.07
2018-09-08T19:02:15.462Z,55.11
2018-09-08T19:04:45.736Z,54.99
2018-09-08T19:07:16.461Z,55.24
2018-09-08T19:09:51.358Z,55.23
2018-09-08T19:12:21.079Z,55.04
2018-09-08T19:14:56.100Z,55.32
2018-09-08T19:17:25.821Z,55.18
2018-09-08T19:20:01.120Z,55.13
2018-09-08T19:22:31.241Z,54.72
2018-09-08T19:25:01.041Z,54.54
2018-09-08T19:27:31.249Z,54.69
2018-09-08T19:30:02.828Z,54.51
2018-09-08T19:32:33.125Z,54.30
2018-09-08T19:35:07.710Z,54.78
2018-09-08T19:37:38.578Z,54.59
2018-09-08T19:40:14.448Z,55.71
2018-09-08T19:42:44.693Z,56.17
2018-09-08T19:45:14.956Z,56.82
2018-09-08T19:47:50.061Z,57.46
2018-09-08T19:50:19.882Z,57.88
2018-09-08T19:52:55.506Z,58.81
2018-09-08T19:55:25.505Z,59.68
2018-09-08T19:58:00.717Z,60.38
2018-09-08T20:00:30.496Z,60.77
2018-09-08T20:03:00.505Z,60.77
2018-09-08T20:05:30.594Z,60.65
2018-09-08T20:08:00.774Z,60.60
2018-09-08T20:10:30.762Z,60.94
2018-09-08T20:13:00.651Z,60.54
2018-09-08T20:15:30.629Z,60.91
2018-09-08T20:18:00.768Z,61.00
2018-09-08T20:20:30.655Z,61.17
2018-09-08T20:23:01.209Z,61.24
2018-09-08T20:25:31.335Z,61.33
2018-09-08T20:28:01.273Z,61.44
2018-09-08T20:30:31.588Z,61.44
2018-09-08T20:33:01.497Z,61.72
2018-09-08T20:35:31.425Z,61.74
2018-09-08T20:38:01.246Z,62.15
2018-09-08T20:40:31.476Z,62.65
2018-09-08T20:43:01.298Z,62.89
2018-09-08T20:45:31.141Z,62.75
2018-09-08T20:48:01.088Z,63.34
2018-09-08T20:50:31.328Z,63.48
2018-09-08T20:53:03.548Z,63.46
2018-09-08T20:55:35.946Z,63.39
2018-09-08T20:58:06.563Z,62.96
2018-09-08T21:00:36.382Z,63.13
2018-09-08T21:03:06.547Z,63.06
2018-09-08T21:05:36.403Z,63.17
2018-09-08T21:08:06.211Z,63.28
2018-09-08T21:10:36.203Z,63.18
2018-09-08T21:13:06.027Z,63.02
2018-09-08T21:15:36.676Z,63.24
2018-09-08T21:18:07.560Z,63.30
2018-09-08T21:20:38.386Z,63.68
2018-09-08T21:23:09.458Z,63.73
2018-09-08T21:25:40.265Z,63.39
2018-09-08T21:28:10.837Z,63.38
2018-09-08T21:30:41.758Z,63.37
2018-09-08T21:33:12.478Z,63.66
2018-09-08T21:35:43.581Z,63.84
2018-09-08T21:38:14.938Z,64.10
2018-09-08T21:40:46.863Z,64.54
2018-09-08T21:43:16.683Z,64.45
2018-09-08T21:45:47.651Z,64.23
2018-09-08T21:48:18.617Z,64.58
2018-09-08T21:50:49.510Z,64.96
2018-09-08T21:53:20.540Z,64.80
2018-09-08T21:55:51.426Z,64.25
2018-09-08T21:58:22.730Z,64.77
2018-09-08T22:00:56.237Z,64.64
2018-09-08T22:03:28.071Z,64.60
2018-09-08T22:05:58.384Z,64.82
2018-09-08T22:08:31.902Z,64.72
2018-09-08T22:11:49.736Z,64.90
2018-09-08T22:14:19.972Z,65.02
2018-09-08T22:16:49.758Z,64.98
2018-09-08T22:19:19.719Z,65.04
2018-09-08T22:21:49.577Z,65.24
2018-09-08T22:24:19.557Z,65.03
2018-09-08T22:26:49.635Z,65.19
2018-09-08T22:29:19.468Z,65.17
2018-09-08T22:31:49.581Z,65.59
2018-09-08T22:34:19.794Z,65.05
2018-09-08T22:36:49.725Z,65.55
2018-09-08T22:39:19.633Z,65.56
2018-09-08T22:41:50.077Z,65.40
2018-09-08T22:44:19.869Z,66.13
2018-09-08T22:46:49.764Z,65.93
2018-09-08T22:49:19.576Z,65.83
2018-09-08T22:51:49.561Z,65.52
2018-09-08T22:54:19.593Z,65.65
2018-09-08T22:56:49.746Z,65.60
2018-09-08T22:59:20.063Z,65.75
2018-09-08T23:01:49.955Z,65.86
2018-09-08T23:04:19.767Z,65.63
2018-09-08T23:06:49.948Z,65.74
2018-09-08T23:09:19.798Z,65.84
2018-09-08T23:11:49.591Z,66.13
2018-09-08T23:14:19.613Z,66.20
2018-09-08T23:16:49.604Z,66.41
2018-09-08T23:19:19.886Z,66.30
2018-09-08T23:21:49.729Z,66.41
2018-09-08T23:24:19.594Z,66.49
2018-09-08T23:26:54.030Z,66.65
2018-09-08T23:29:23.881Z,66.95
2018-09-08T23:31:53.887Z,66.32
2018-09-08T23:34:23.672Z,66.35
2018-09-08T23:36:53.943Z,66.58
2018-09-08T23:39:23.760Z,66.55
2018-09-08T23:41:53.523Z,66.51
2018-09-08T23:44:24.182Z,66.91
2018-09-08T23:46:54.266Z,67.27
2018-09-08T23:49:24.438Z,66.87
2018-09-08T23:51:54.472Z,67.16
2018-09-08T23:54:24.675Z,67.43
